createdAt,value
2023-12-01T00:00:28.511Z,99448.69
2023-12-01T00:03:01.573Z,99445.41
2023-12-01T00:05:30.154Z,99436.03
2023-12-01T00:07:58.666Z,99437.53
2023-12-01T00:10:27.476Z,99436.47
2023-12-01T00:12:55.920Z,99445.16
2023-12-01T00:15:24.384Z,99446.13
2023-12-01T00:17:54.235Z,99454.97
2023-12-01T00:20:32.974Z,99453.03
2023-12-01T00:23:01.373Z,99450.25
2023-12-01T00:25:31.514Z,99454.53
2023-12-01T00:28:00.037Z,99453.72
2023-12-01T00:30:33.449Z,99442.25
2023-12-01T00:33:05.996Z,99457.84
2023-12-01T00:35:37.796Z,99437.97
2023-12-01T00:38:09.024Z,99449.00
2023-12-01T00:40:37.749Z,99448.16
2023-12-01T00:43:06.407Z,99438.94
2023-12-01T00:45:35.016Z,99443.16
2023-12-01T00:48:05.154Z,99438.06
2023-12-01T00:50:33.745Z,99450.63
2023-12-01T00:53:03.139Z,99442.09
2023-12-01T00:55:33.454Z,99445.03
2023-12-01T00:58:03.980Z,99437.31
2023-12-01T01:00:33.298Z,99446.66
2023-12-01T01:03:02.438Z,99448.28
2023-12-01T01:05:35.129Z,99439.09
2023-12-01T01:08:03.650Z,99435.94
2023-12-01T01:10:32.167Z,99445.59
2023-12-01T01:13:00.632Z,99441.03
2023-12-01T01:15:29.020Z,99440.91
2023-12-01T01:17:57.592Z,99445.16
2023-12-01T01:20:28.705Z,99437.16
2023-12-01T01:22:58.476Z,99443.19
2023-12-01T01:25:27.096Z,99447.66
2023-12-01T01:27:55.795Z,99447.78
2023-12-01T01:30:33.300Z,99441.03
2023-12-01T01:33:07.227Z,99453.63
2023-12-01T01:35:35.920Z,99453.75
2023-12-01T01:38:06.031Z,99449.06
2023-12-01T01:40:34.830Z,99452.78
2023-12-01T01:43:06.774Z,99464.09
2023-12-01T01:45:35.574Z,99463.00
2023-12-01T01:48:12.805Z,99467.13
2023-12-01T01:50:41.798Z,99451.38
2023-12-01T01:53:12.538Z,99472.22
2023-12-01T01:55:41.119Z,99460.75
2023-12-01T01:58:13.586Z,99463.06
2023-12-01T02:00:42.986Z,99456.16
2023-12-01T02:03:15.389Z,99451.75
2023-12-01T02:05:44.094Z,99453.25
2023-12-01T02:08:26.013Z,99460.16
2023-12-01T02:10:55.454Z,99459.19
2023-12-01T02:13:25.467Z,99444.69
2023-12-01T02:16:01.611Z,99458.66
2023-12-01T02:18:32.569Z,99452.44
2023-12-01T02:21:01.480Z,99452.44
2023-12-01T02:23:31.395Z,99452.44
2023-12-01T02:26:00.485Z,99443.19
2023-12-01T02:28:29.310Z,99450.09
2023-12-01T02:30:59.203Z,99442.75
2023-12-01T02:33:27.845Z,99447.47
2023-12-01T02:35:56.400Z,99442.53
2023-12-01T02:38:24.834Z,99447.94
2023-12-01T02:40:55.853Z,99453.31
2023-12-01T02:43:24.480Z,99442.97
2023-12-01T02:45:53.063Z,99442.31
2023-12-01T02:48:21.442Z,99451.81
2023-12-01T02:50:50.197Z,99446.03
2023-12-01T02:53:20.324Z,99450.59
2023-12-01T02:55:48.756Z,99443.28
2023-12-01T02:58:18.707Z,99446.72
2023-12-01T03:00:47.266Z,99443.28
2023-12-01T03:03:16.550Z,99439.81
2023-12-01T03:05:45.385Z,99436.38
2023-12-01T03:08:13.799Z,99435.13
2023-12-01T03:10:42.509Z,99446.19
2023-12-01T03:13:14.092Z,99435.34
2023-12-01T03:15:44.310Z,99437.19
2023-12-01T03:18:12.881Z,99425.34
2023-12-01T03:20:42.664Z,99433.56
2023-12-01T03:23:11.035Z,99429.69
2023-12-01T03:25:39.360Z,99441.53
2023-12-01T03:28:10.437Z,99437.81
2023-12-01T03:30:45.623Z,99434.66
2023-12-01T03:33:14.160Z,99427.53
2023-12-01T03:35:42.848Z,99435.53
2023-12-01T03:38:14.098Z,99429.38
2023-12-01T03:40:45.901Z,99436.94
2023-12-01T03:43:14.512Z,99439.72
2023-12-01T03:45:47.327Z,99438.88
2023-12-01T03:48:18.826Z,99428.25
2023-12-01T03:50:47.224Z,99437.50
2023-12-01T03:53:17.605Z,99436.50
2023-12-01T03:55:46.868Z,99438.31
2023-12-01T03:58:15.424Z,99440.25
2023-12-01T04:00:45.508Z,99440.94
2023-12-01T04:03:14.336Z,99434.19
2023-12-01T04:05:43.790Z,99442.44
2023-12-01T04:08:12.110Z,99441.16
2023-12-01T04:10:40.640Z,99443.50
2023-12-01T04:13:09.398Z,99445.72
2023-12-01T04:15:39.068Z,99437.34
2023-12-01T04:18:09.260Z,99447.81
2023-12-01T04:20:40.666Z,99434.88
2023-12-01T04:23:10.967Z,99442.19
2023-12-01T04:25:40.711Z,99442.63
2023-12-01T04:28:09.969Z,99445.91
2023-12-01T04:30:39.719Z,99440.16
2023-12-01T04:33:09.685Z,99447.50
2023-12-01T04:35:39.173Z,99434.81
2023-12-01T04:38:08.619Z,99438.41
2023-12-01T04:40:40.026Z,99442.00
2023-12-01T04:43:08.603Z,99434.72
2023-12-01T04:45:38.466Z,99444.13
2023-12-01T04:48:10.688Z,99455.44
2023-12-01T04:50:47.908Z,99446.06
2023-12-01T04:53:16.853Z,99447.84
2023-12-01T04:55:48.083Z,99454.38
2023-12-01T04:58:16.955Z,99450.53
2023-12-01T05:00:46.440Z,99442.56
2023-12-01T05:03:16.592Z,99454.94
2023-12-01T05:05:45.561Z,99444.38
2023-12-01T05:08:16.178Z,99455.38
2023-12-01T05:10:47.088Z,99452.91
2023-12-01T05:13:16.216Z,99461.44
2023-12-01T05:15:45.268Z,99460.91
2023-12-01T05:18:15.521Z,99463.53
2023-12-01T05:20:47.562Z,99456.09
2023-12-01T05:23:18.445Z,99466.56
2023-12-01T05:25:48.032Z,99458.72
2023-12-01T05:28:16.917Z,99457.34
2023-12-01T05:30:48.493Z,99463.56
2023-12-01T05:33:40.198Z,99471.25
2023-12-01T05:36:15.489Z,99464.22
2023-12-01T05:38:47.055Z,99469.59
2023-12-01T05:41:20.680Z,99470.03
2023-12-01T05:43:49.317Z,99484.66
2023-12-01T05:46:17.901Z,99476.25
2023-12-01T05:48:46.794Z,99477.34
2023-12-01T05:51:16.868Z,99472.94
2023-12-01T05:53:45.527Z,99472.53
2023-12-01T05:56:14.233Z,99458.88
2023-12-01T05:58:43.464Z,99466.88
2023-12-01T06:01:12.024Z,99474.59
2023-12-01T06:03:40.607Z,99474.31
2023-12-01T06:06:10.353Z,99476.53
2023-12-01T06:08:40.375Z,99477.63
2023-12-01T06:11:11.976Z,99482.34
2023-12-01T06:13:40.604Z,99491.16
2023-12-01T06:16:09.861Z,99499.16
2023-12-01T06:18:39.525Z,99493.09
2023-12-01T06:21:12.457Z,99496.25
2023-12-01T06:23:45.198Z,99489.22
2023-12-01T06:26:14.121Z,99494.84
2023-12-01T06:28:47.677Z,99489.75
2023-12-01T06:31:18.520Z,99500.63
2023-12-01T06:33:47.194Z,99506.56
2023-12-01T06:36:16.444Z,99503.94
2023-12-01T06:38:48.138Z,99504.22
2023-12-01T06:41:19.150Z,99505.47
2023-12-01T06:43:48.411Z,99512.34
2023-12-01T06:46:17.051Z,99514.69
2023-12-01T06:48:45.847Z,99521.31
2023-12-01T06:51:15.719Z,99519.78
2023-12-01T06:53:48.376Z,99524.75
2023-12-01T06:56:27.841Z,99527.38
2023-12-01T06:58:56.828Z,99526.53
2023-12-01T07:01:26.189Z,99530.25
2023-12-01T07:03:55.466Z,99521.03
2023-12-01T07:06:24.234Z,99525.84
2023-12-01T07:08:54.348Z,99525.84
2023-12-01T07:11:26.346Z,99536.06
2023-12-01T07:13:58.589Z,99538.50
2023-12-01T07:16:32.664Z,99547.63
2023-12-01T07:19:01.033Z,99544.59
2023-12-01T07:21:29.654Z,99547.47
2023-12-01T07:24:00.467Z,99555.06
2023-12-01T07:26:34.426Z,99557.97
2023-12-01T07:29:05.810Z,99555.75
2023-12-01T07:31:38.951Z,99551.78
2023-12-01T07:34:07.418Z,99557.53
2023-12-01T07:36:40.812Z,99545.84
2023-12-01T07:39:11.553Z,99551.59
2023-12-01T07:41:40.630Z,99552.00
2023-12-01T07:44:09.036Z,99564.84
2023-12-01T07:46:41.242Z,99560.56
2023-12-01T07:49:13.152Z,99565.66
2023-12-01T07:51:42.013Z,99563.88
2023-12-01T07:54:12.108Z,99566.50
2023-12-01T07:56:40.641Z,99576.53
2023-12-01T07:59:09.228Z,99564.13
2023-12-01T08:01:40.185Z,99570.19
2023-12-01T08:04:12.497Z,99564.94
2023-12-01T08:06:44.343Z,99577.34
2023-12-01T08:09:18.153Z,99572.56
2023-12-01T08:11:46.959Z,99579.97
2023-12-01T08:14:18.749Z,99585.06
2023-12-01T08:16:47.294Z,99592.94
2023-12-01T08:19:15.838Z,99586.72
2023-12-01T08:21:44.827Z,99573.09
2023-12-01T08:24:14.766Z,99578.28
2023-12-01T08:26:49.220Z,99578.97
2023-12-01T08:29:17.740Z,99583.50
2023-12-01T08:31:47.059Z,99587.22
2023-12-01T08:34:22.663Z,99576.97
2023-12-01T08:36:52.397Z,99574.63
2023-12-01T08:39:22.465Z,99579.13
2023-12-01T08:41:54.654Z,99588.75
2023-12-01T08:44:22.976Z,99589.28
2023-12-01T08:46:58.659Z,99598.94
2023-12-01T08:49:27.065Z,99585.13
2023-12-01T08:51:56.885Z,99598.63
2023-12-01T08:54:26.910Z,99592.13
2023-12-01T08:57:00.278Z,99593.63
2023-12-01T08:59:29.345Z,99595.00
2023-12-01T09:02:02.326Z,99584.78
2023-12-01T09:04:31.126Z,99594.19
2023-12-01T09:06:59.847Z,99586.59
2023-12-01T09:09:30.587Z,99585.66
2023-12-01T09:11:59.403Z,99606.81
2023-12-01T09:14:30.676Z,99603.88
2023-12-01T09:16:59.588Z,99600.41
2023-12-01T09:19:28.009Z,99590.59
2023-12-01T09:21:56.992Z,99588.53
2023-12-01T09:24:25.992Z,99591.28
2023-12-01T09:26:56.374Z,99587.13
2023-12-01T09:29:26.786Z,99595.78
2023-12-01T09:31:55.516Z,99593.00
2023-12-01T09:34:24.075Z,99602.34
2023-12-01T09:36:58.244Z,99603.28
2023-12-01T09:39:26.958Z,99606.88
2023-12-01T09:42:07.650Z,99603.66
2023-12-01T09:44:37.956Z,99613.72
2023-12-01T09:47:07.353Z,99604.88
2023-12-01T09:49:40.427Z,99605.13
2023-12-01T09:52:10.590Z,99611.56
2023-12-01T09:54:39.730Z,99602.19
2023-12-01T09:57:11.432Z,99604.53
2023-12-01T09:59:50.501Z,99594.09
2023-12-01T10:02:20.068Z,99602.50
2023-12-01T10:04:48.870Z,99602.50
2023-12-01T10:07:20.761Z,99592.44
2023-12-01T10:09:49.452Z,99591.91
2023-12-01T10:12:21.026Z,99594.66
2023-12-01T10:14:50.042Z,99584.38
2023-12-01T10:17:27.861Z,99600.66
2023-12-01T10:20:09.811Z,99599.84
2023-12-01T10:22:38.470Z,99598.34
2023-12-01T10:25:08.681Z,99598.88
2023-12-01T10:27:40.149Z,99589.28
2023-12-01T10:30:13.730Z,99603.47
2023-12-01T10:32:43.907Z,99596.88
2023-12-01T10:35:13.904Z,99589.06
2023-12-01T10:37:45.548Z,99605.44
2023-12-01T10:40:17.664Z,99594.66
2023-12-01T10:42:53.145Z,99597.59
2023-12-01T10:45:22.134Z,99598.03
2023-12-01T10:47:56.987Z,99599.06
2023-12-01T10:50:25.909Z,99601.59
2023-12-01T10:52:58.913Z,99601.22
2023-12-01T10:55:27.767Z,99602.28
2023-12-01T10:58:01.003Z,99598.25
2023-12-01T11:00:32.441Z,99593.16
2023-12-01T11:03:05.189Z,99604.84
2023-12-01T11:05:39.453Z,99596.13
2023-12-01T11:08:29.384Z,99611.59
2023-12-01T11:11:09.217Z,99605.31
2023-12-01T11:13:53.775Z,99600.88
2023-12-01T11:16:24.285Z,99619.66
2023-12-01T11:18:57.031Z,99615.78
2023-12-01T11:21:27.977Z,99604.34
2023-12-01T11:23:56.913Z,99608.41
2023-12-01T11:26:27.912Z,99609.94
2023-12-01T11:29:13.188Z,99611.88
2023-12-01T11:31:52.886Z,99607.78
2023-12-01T11:34:22.095Z,99622.97
2023-12-01T11:36:51.682Z,99614.97
2023-12-01T11:39:31.265Z,99613.31
2023-12-01T11:42:20.491Z,99612.91
2023-12-01T11:44:53.662Z,99611.72
2023-12-01T11:47:22.720Z,99617.09
2023-12-01T11:49:55.553Z,99606.75
2023-12-01T11:52:24.332Z,99606.06
2023-12-01T11:54:53.186Z,99612.97
2023-12-01T11:57:43.493Z,99610.47
2023-12-01T12:00:15.227Z,99618.63
2023-12-01T12:02:47.398Z,99614.34
2023-12-01T12:05:16.351Z,99619.47
2023-12-01T12:07:46.465Z,99621.81
2023-12-01T12:10:33.910Z,99625.94
2023-12-01T12:13:02.423Z,99610.25
2023-12-01T12:15:35.674Z,99621.72
2023-12-01T12:18:04.428Z,99621.03
2023-12-01T12:20:33.200Z,99624.16
2023-12-01T12:23:02.143Z,99614.66
2023-12-01T12:25:37.423Z,99617.13
2023-12-01T12:28:12.215Z,99620.06
2023-12-01T12:30:42.328Z,99623.38
2023-12-01T12:33:11.297Z,99618.41
2023-12-01T12:35:40.097Z,99630.41
2023-12-01T12:38:09.599Z,99624.34
2023-12-01T12:40:38.342Z,99625.59
2023-12-01T12:43:08.586Z,99634.00
2023-12-01T12:45:37.407Z,99627.38
2023-12-01T12:48:11.278Z,99628.59
2023-12-01T12:50:43.549Z,99626.78
2023-12-01T12:53:12.245Z,99623.38
2023-12-01T12:55:41.246Z,99628.88
2023-12-01T12:58:09.892Z,99642.97
2023-12-01T13:00:39.180Z,99629.59
2023-12-01T13:03:09.773Z,99644.50
2023-12-01T13:05:46.356Z,99647.94
2023-12-01T13:08:19.506Z,99643.66
2023-12-01T13:10:48.211Z,99640.75
2023-12-01T13:13:16.766Z,99639.84
2023-12-01T13:15:50.362Z,99650.34
2023-12-01T13:18:22.821Z,99651.28
2023-12-01T13:20:51.910Z,99654.19
2023-12-01T13:23:20.873Z,99648.13
2023-12-01T13:25:50.740Z,99652.53
2023-12-01T13:28:19.083Z,99662.06
2023-12-01T13:30:47.670Z,99656.13
2023-12-01T13:33:16.475Z,99674.63
2023-12-01T13:35:46.358Z,99674.75
2023-12-01T13:38:14.934Z,99676.56
2023-12-01T13:40:43.419Z,99668.31
2023-12-01T13:43:12.198Z,99676.56
2023-12-01T13:45:40.877Z,99675.88
2023-12-01T13:48:09.486Z,99672.13
2023-12-01T13:50:38.040Z,99671.84
2023-12-01T13:53:08.772Z,99678.06
2023-12-01T13:55:37.144Z,99676.81
2023-12-01T13:58:05.581Z,99682.34
2023-12-01T14:00:34.179Z,99675.81
2023-12-01T14:03:03.499Z,99677.47
2023-12-01T14:05:32.216Z,99679.00
2023-12-01T14:08:01.168Z,99677.19
2023-12-01T14:10:31.119Z,99688.81
2023-12-01T14:12:59.733Z,99690.34
2023-12-01T14:15:28.078Z,99693.63
2023-12-01T14:17:56.505Z,99691.56
2023-12-01T14:20:25.078Z,99696.66
2023-12-01T14:23:02.792Z,99685.22
2023-12-01T14:25:32.580Z,99678.16
2023-12-01T14:28:01.247Z,99680.25
2023-12-01T14:30:29.614Z,99687.59
2023-12-01T14:32:58.464Z,99686.44
2023-12-01T14:35:26.906Z,99690.72
2023-12-01T14:37:55.499Z,99695.97
2023-12-01T14:40:24.015Z,99689.22
2023-12-01T14:42:53.770Z,99703.84
2023-12-01T14:45:22.338Z,99693.09
2023-12-01T14:47:50.941Z,99697.53
2023-12-01T14:50:20.004Z,99697.81
2023-12-01T14:52:48.654Z,99701.66
2023-12-01T14:55:17.274Z,99698.34
2023-12-01T14:57:45.675Z,99700.97
2023-12-01T15:00:18.295Z,99708.56
2023-12-01T15:02:48.536Z,99707.72
2023-12-01T15:05:17.538Z,99713.94
2023-12-01T15:07:45.950Z,99708.69
2023-12-01T15:10:14.571Z,99716.69
2023-12-01T15:12:45.280Z,99713.13
2023-12-01T15:15:15.364Z,99707.59
2023-12-01T15:17:44.324Z,99700.00
2023-12-01T15:20:13.712Z,99711.75
2023-12-01T15:22:42.200Z,99708.16
2023-12-01T15:25:12.493Z,99710.09
2023-12-01T15:27:42.163Z,99710.91
2023-12-01T15:30:12.060Z,99719.75
2023-12-01T15:32:44.331Z,99719.88
2023-12-01T15:35:16.653Z,99718.09
2023-12-01T15:37:47.994Z,99722.63
2023-12-01T15:40:16.837Z,99723.47
2023-12-01T15:42:45.643Z,99725.94
2023-12-01T15:45:14.394Z,99717.69
2023-12-01T15:47:44.927Z,99720.97
2023-12-01T15:50:13.810Z,99724.88
2023-12-01T15:52:42.499Z,99723.06
2023-12-01T15:55:11.491Z,99724.03
2023-12-01T15:57:40.334Z,99722.38
2023-12-01T16:00:11.077Z,99721.28
2023-12-01T16:02:39.686Z,99716.16
2023-12-01T16:05:12.883Z,99720.75
2023-12-01T16:07:41.722Z,99727.47
2023-12-01T16:10:11.367Z,99726.00
2023-12-01T16:12:40.153Z,99730.53
2023-12-01T16:15:17.300Z,99733.72
2023-12-01T16:17:47.063Z,99717.97
2023-12-01T16:20:17.336Z,99722.25
2023-12-01T16:22:46.092Z,99720.75
2023-12-01T16:25:14.511Z,99729.56
2023-12-01T16:27:42.906Z,99723.22
2023-12-01T16:30:12.877Z,99730.09
2023-12-01T16:32:44.299Z,99717.44
2023-12-01T16:35:15.513Z,99719.22
2023-12-01T16:37:45.353Z,99725.03
2023-12-01T16:40:15.002Z,99720.75
2023-12-01T16:42:48.348Z,99721.16
2023-12-01T16:45:18.618Z,99729.28
2023-12-01T16:47:47.206Z,99716.03
2023-12-01T16:50:16.574Z,99718.53
2023-12-01T16:52:46.946Z,99717.44
2023-12-01T16:55:16.320Z,99720.47
2023-12-01T16:57:45.072Z,99722.81
2023-12-01T17:00:14.700Z,99723.78
2023-12-01T17:02:43.831Z,99711.38
2023-12-01T17:05:12.601Z,99717.84
2023-12-01T17:07:41.093Z,99721.44
2023-12-01T17:10:11.884Z,99714.81
2023-12-01T17:12:40.692Z,99719.66
2023-12-01T17:15:09.854Z,99727.75
2023-12-01T17:17:38.672Z,99724.88
2023-12-01T17:20:09.396Z,99715.91
2023-12-01T17:22:48.735Z,99720.31
2023-12-01T17:25:18.904Z,99729.16
2023-12-01T17:27:49.661Z,99721.41
2023-12-01T17:30:18.260Z,99726.94
2023-12-01T17:32:46.985Z,99723.91
2023-12-01T17:35:15.421Z,99726.41
2023-12-01T17:37:43.893Z,99736.75
2023-12-01T17:40:13.547Z,99732.72
2023-12-01T17:42:43.830Z,99727.91
2023-12-01T17:45:12.654Z,99720.88
2023-12-01T17:47:42.925Z,99720.19
2023-12-01T17:50:11.819Z,99729.97
2023-12-01T17:52:49.569Z,99720.03
2023-12-01T17:55:18.990Z,99724.59
2023-12-01T17:57:50.998Z,99723.63
2023-12-01T18:00:21.248Z,99725.28
2023-12-01T18:02:52.275Z,99722.09
2023-12-01T18:05:21.339Z,99713.41
2023-12-01T18:07:50.064Z,99729.81
2023-12-01T18:10:18.846Z,99729.81
2023-12-01T18:12:48.813Z,99733.16
2023-12-01T18:15:17.310Z,99729.69
2023-12-01T18:17:47.579Z,99734.09
2023-12-01T18:20:16.252Z,99735.06
2023-12-01T18:22:45.422Z,99731.75
2023-12-01T18:25:13.899Z,99741.72
2023-12-01T18:27:43.278Z,99740.88
2023-12-01T18:30:14.310Z,99745.69
2023-12-01T18:32:45.625Z,99740.31
2023-12-01T18:35:14.437Z,99737.69
2023-12-01T18:37:43.012Z,99741.44
2023-12-01T18:40:12.444Z,99755.22
2023-12-01T18:42:40.793Z,99740.72
2023-12-01T18:45:12.564Z,99751.50
2023-12-01T18:47:42.510Z,99748.19
2023-12-01T18:50:13.023Z,99747.34
2023-12-01T18:52:42.077Z,99746.66
2023-12-01T18:55:11.234Z,99738.78
2023-12-01T18:57:39.676Z,99747.47
2023-12-01T19:00:12.304Z,99748.75
2023-12-01T19:02:43.209Z,99749.44
2023-12-01T19:05:12.260Z,99749.44
2023-12-01T19:07:40.765Z,99766.78
2023-12-01T19:10:12.896Z,99762.69
2023-12-01T19:12:41.511Z,99768.19
2023-12-01T19:15:11.168Z,99771.22
2023-12-01T19:17:39.498Z,99779.09
2023-12-01T19:20:13.252Z,99768.88
2023-12-01T19:22:46.647Z,99775.22
2023-12-01T19:25:15.136Z,99759.75
2023-12-01T19:27:43.603Z,99764.34
2023-12-01T19:30:16.770Z,99767.22
2023-12-01T19:32:45.420Z,99761.00
2023-12-01T19:35:15.452Z,99761.84
2023-12-01T19:37:44.440Z,99766.13
2023-12-01T19:40:13.418Z,99767.22
2023-12-01T19:42:44.330Z,99769.13
2023-12-01T19:45:13.497Z,99769.00
2023-12-01T19:47:41.809Z,99769.56
2023-12-01T19:50:11.104Z,99770.22
2023-12-01T19:52:40.823Z,99773.13
2023-12-01T19:55:09.848Z,99773.13
2023-12-01T19:57:38.535Z,99776.97
2023-12-01T20:00:15.904Z,99776.41
2023-12-01T20:02:45.315Z,99775.47
2023-12-01T20:05:13.647Z,99785.94
2023-12-01T20:07:44.410Z,99776.69
2023-12-01T20:10:15.735Z,99785.53
2023-12-01T20:12:44.290Z,99786.50
2023-12-01T20:15:15.290Z,99788.28
2023-12-01T20:17:43.812Z,99788.56
2023-12-01T20:20:13.191Z,99779.75
2023-12-01T20:22:43.050Z,99795.88
2023-12-01T20:25:12.359Z,99792.69
2023-12-01T20:27:40.561Z,99791.31
2023-12-01T20:30:12.594Z,99783.31
2023-12-01T20:32:43.142Z,99786.19
2023-12-01T20:35:12.113Z,99788.13
2023-12-01T20:37:40.541Z,99788.53
2023-12-01T20:40:11.236Z,99796.53
2023-12-01T20:42:39.570Z,99790.84
2023-12-01T20:45:09.552Z,99798.97
2023-12-01T20:47:38.107Z,99792.50
2023-12-01T20:50:07.694Z,99790.44
2023-12-01T20:52:36.029Z,99795.94
2023-12-01T20:55:05.448Z,99800.84
2023-12-01T20:57:35.134Z,99801.16
2023-12-01T21:00:04.297Z,99800.56
2023-12-01T21:02:33.138Z,99805.69
2023-12-01T21:05:01.604Z,99802.78
2023-12-01T21:07:29.988Z,99810.13
2023-12-01T21:10:03.542Z,99804.19
2023-12-01T21:12:31.862Z,99808.84
2023-12-01T21:15:06.198Z,99805.13
2023-12-01T21:17:34.714Z,99812.72
2023-12-01T21:20:05.761Z,99807.94
2023-12-01T21:22:34.173Z,99806.81
2023-12-01T21:25:03.844Z,99805.19
2023-12-01T21:27:32.504Z,99809.88
2023-12-01T21:30:02.920Z,99815.81
2023-12-01T21:32:33.849Z,99815.38
2023-12-01T21:35:04.039Z,99817.28
2023-12-01T21:37:32.434Z,99808.06
2023-12-01T21:40:02.091Z,99805.72
2023-12-01T21:42:30.668Z,99814.84
2023-12-01T21:44:59.330Z,99815.91
2023-12-01T21:47:29.275Z,99815.75
2023-12-01T21:49:58.118Z,99823.06
2023-12-01T21:52:28.272Z,99827.47
2023-12-01T21:54:58.457Z,99820.59
2023-12-01T21:57:27.059Z,99827.34
2023-12-01T22:00:04.586Z,99835.06
2023-12-01T22:02:35.643Z,99832.47
2023-12-01T22:05:04.241Z,99829.13
2023-12-01T22:07:32.714Z,99836.75
2023-12-01T22:10:01.198Z,99841.00
2023-12-01T22:12:29.920Z,99832.19
2023-12-01T22:14:58.725Z,99841.84
2023-12-01T22:17:27.222Z,99840.19
2023-12-01T22:19:57.099Z,99847.91
2023-12-01T22:22:25.628Z,99852.84
2023-12-01T22:24:53.993Z,99845.84
2023-12-01T22:27:22.975Z,99841.69
2023-12-01T22:29:51.635Z,99850.25
2023-12-01T22:32:22.461Z,99851.19
2023-12-01T22:34:52.812Z,99848.59
2023-12-01T22:37:22.922Z,99839.06
2023-12-01T22:39:54.156Z,99848.19
2023-12-01T22:42:22.753Z,99842.81
2023-12-01T22:44:51.880Z,99845.88
2023-12-01T22:47:20.382Z,99840.50
2023-12-01T22:49:49.788Z,99849.88
2023-12-01T22:52:18.619Z,99849.19
2023-12-01T22:54:51.532Z,99847.25
2023-12-01T22:57:20.037Z,99858.69
2023-12-01T22:59:48.628Z,99858.16
2023-12-01T23:02:18.663Z,99858.53
2023-12-01T23:04:47.452Z,99858.09
2023-12-01T23:07:16.242Z,99853.69
2023-12-01T23:09:44.892Z,99862.78
2023-12-01T23:12:17.281Z,99854.09
2023-12-01T23:14:46.014Z,99855.75
2023-12-01T23:17:14.427Z,99862.34
2023-12-01T23:19:43.316Z,99858.19
2023-12-01T23:22:12.041Z,99854.03
2023-12-01T23:24:42.405Z,99859.69
2023-12-01T23:27:19.562Z,99858.28
2023-12-01T23:29:56.346Z,99857.72
2023-12-01T23:32:25.011Z,99859.09
2023-12-01T23:34:53.668Z,99857.41
2023-12-01T23:37:22.175Z,99861.00
2023-12-01T23:39:55.671Z,99862.53
2023-12-01T23:42:24.180Z,99860.47
2023-12-01T23:44:52.897Z,99859.22
2023-12-01T23:47:23.181Z,99862.78
2023-12-01T23:49:51.672Z,99857.91
2023-12-01T23:52:20.136Z,99851.44
2023-12-01T23:54:48.611Z,99855.88
2023-12-01T23:57:17.191Z,99855.19
2023-12-01T23:59:45.957Z,99854.47
